sensor_id;sensor_type;location;lat;lon;timestamp;pressure;altitude;pressure_sealevel;temperature;humidity
72721;BME280;60835;50.974;10.322;2022-10-17T00:00:28;97354.69;;;12.37;100.00
72721;BME280;60835;50.974;10.322;2022-10-17T00:02:55;97351.50;;;12.41;100.00
72721;BME280;60835;50.974;10.322;2022-10-17T00:05:22;97352.06;;;12.37;100.00
72721;BME280;60835;50.974;10.322;2022-10-17T00:07:49;97367.34;;;12.35;100.00
72721;BME280;60835;50.974;10.322;2022-10-17T00:10:16;97371.41;;;12.31;100.00
72721;BME280;60835;50.974;10.322;2022-10-17T00:12:42;97380.81;;;12.33;100.00
72721;BME280;60835;50.974;10.322;2022-10-17T00:15:10;97388.44;;;12.21;100.00
72721;BME280;60835;50.974;10.322;2022-10-17T00:17:39;97372.78;;;12.05;100.00
72721;BME280;60835;50.974;10.322;2022-10-17T00:20:07;97408.19;;;12.19;100.00
72721;BME280;60835;50.974;10.322;2022-10-17T00:22:33;97390.22;;;12.14;100.00
72721;BME280;60835;50.974;10.322;2022-10-17T00:25:05;97376.06;;;12.07;100.00
72721;BME280;60835;50.974;10.322;2022-10-17T00:27:36;97366.72;;;12.11;100.00
72721;BME280;60835;50.974;10.322;2022-10-17T00:30:04;97410.09;;;12.25;100.00
72721;BME280;60835;50.974;10.322;2022-10-17T00:32:32;97402.41;;;12.30;100.00
72721;BME280;60835;50.974;10.322;2022-10-17T00:34:59;97400.94;;;12.28;100.00
72721;BME280;60835;50.974;10.322;2022-10-17T00:37:25;97401.56;;;12.30;100.00
72721;BME280;60835;50.974;10.322;2022-10-17T00:39:52;97380.09;;;12.25;100.00
72721;BME280;60835;50.974;10.322;2022-10-17T00:42:19;97395.19;;;12.24;100.00
72721;BME280;60835;50.974;10.322;2022-10-17T00:47:16;97405.75;;;12.39;100.00
72721;BME280;60835;50.974;10.322;2022-10-17T00:49:44;97405.34;;;12.42;100.00
72721;BME280;60835;50.974;10.322;2022-10-17T00:52:14;97397.97;;;12.37;100.00
72721;BME280;60835;50.974;10.322;2022-10-17T00:54:47;97403.03;;;12.32;100.00
72721;BME280;60835;50.974;10.322;2022-10-17T00:57:15;97390.59;;;12.33;100.00
72721;BME280;60835;50.974;10.322;2022-10-17T00:59:43;97408.00;;;12.42;100.00
72721;BME280;60835;50.974;10.322;2022-10-17T01:02:14;97396.78;;;12.18;100.00
72721;BME280;60835;50.974;10.322;2022-10-17T01:04:44;97413.47;;;12.34;100.00
72721;BME280;60835;50.974;10.322;2022-10-17T01:07:12;97417.72;;;12.35;100.00
72721;BME280;60835;50.974;10.322;2022-10-17T01:09:39;97426.66;;;12.27;100.00
72721;BME280;60835;50.974;10.322;2022-10-17T01:26:18;97405.06;;;12.58;100.00
72721;BME280;60835;50.974;10.322;2022-10-17T01:32:35;97416.22;;;12.47;100.00
72721;BME280;60835;50.974;10.322;2022-10-17T01:35:19;97416.09;;;12.55;100.00
72721;BME280;60835;50.974;10.322;2022-10-17T01:38:25;97396.47;;;12.49;100.00
72721;BME280;60835;50.974;10.322;2022-10-17T01:40:48;97412.38;;;12.49;100.00
72721;BME280;60835;50.974;10.322;2022-10-17T01:43:21;97418.22;;;12.45;100.00
72721;BME280;60835;50.974;10.322;2022-10-17T01:45:56;97412.63;;;12.54;100.00
72721;BME280;60835;50.974;10.322;2022-10-17T01:48:30;97400.88;;;12.42;100.00
72721;BME280;60835;50.974;10.322;2022-10-17T01:51:08;97412.78;;;12.53;100.00
72721;BME280;60835;50.974;10.322;2022-10-17T01:53:40;97399.16;;;12.56;100.00
72721;BME280;60835;50.974;10.322;2022-10-17T01:56:12;97430.38;;;12.54;100.00
72721;BME280;60835;50.974;10.322;2022-10-17T01:58:44;97431.38;;;12.53;100.00
72721;BME280;60835;50.974;10.322;2022-10-17T02:01:12;97431.13;;;12.48;100.00
72721;BME280;60835;50.974;10.322;2022-10-17T02:03:41;97404.03;;;12.80;100.00
72721;BME280;60835;50.974;10.322;2022-10-17T02:06:08;97437.00;;;12.64;100.00
72721;BME280;60835;50.974;10.322;2022-10-17T02:08:48;97427.44;;;12.70;100.00
72721;BME280;60835;50.974;10.322;2022-10-17T02:11:20;97404.50;;;12.90;100.00
72721;BME280;60835;50.974;10.322;2022-10-17T02:24:51;97441.28;;;13.14;100.00
72721;BME280;60835;50.974;10.322;2022-10-17T02:30:09;97426.22;;;13.00;100.00
72721;BME280;60835;50.974;10.322;2022-10-17T02:35:40;97459.72;;;13.22;100.00
72721;BME280;60835;50.974;10.322;2022-10-17T02:38:09;97483.78;;;12.93;100.00
72721;BME280;60835;50.974;10.322;2022-10-17T02:40:38;97467.84;;;12.93;100.00
72721;BME280;60835;50.974;10.322;2022-10-17T02:43:06;97462.09;;;12.90;100.00
72721;BME280;60835;50.974;10.322;2022-10-17T02:45:34;97492.34;;;12.95;100.00
72721;BME280;60835;50.974;10.322;2022-10-17T02:51:04;97490.66;;;12.88;100.00
72721;BME280;60835;50.974;10.322;2022-10-17T02:53:43;97468.22;;;12.90;100.00
72721;BME280;60835;50.974;10.322;2022-10-17T02:56:20;97494.28;;;12.80;100.00
72721;BME280;60835;50.974;10.322;2022-10-17T02:58:53;97477.69;;;12.99;100.00
72721;BME280;60835;50.974;10.322;2022-10-17T03:01:21;97508.06;;;12.69;100.00
72721;BME280;60835;50.974;10.322;2022-10-17T03:03:48;97500.78;;;12.77;100.00
72721;BME280;60835;50.974;10.322;2022-10-17T03:06:14;97493.91;;;12.83;100.00
72721;BME280;60835;50.974;10.322;2022-10-17T03:08:41;97495.81;;;12.68;100.00
72721;BME280;60835;50.974;10.322;2022-10-17T03:11:07;97481.09;;;12.65;100.00
72721;BME280;60835;50.974;10.322;2022-10-17T03:13:36;97484.75;;;13.13;100.00
72721;BME280;60835;50.974;10.322;2022-10-17T03:16:05;97500.84;;;12.84;100.00
72721;BME280;60835;50.974;10.322;2022-10-17T03:18:31;97500.41;;;12.80;100.00
72721;BME280;60835;50.974;10.322;2022-10-17T03:20:58;97504.13;;;12.86;100.00
72721;BME280;60835;50.974;10.322;2022-10-17T03:23:24;97486.28;;;13.01;100.00
72721;BME280;60835;50.974;10.322;2022-10-17T03:25:51;97486.66;;;12.98;100.00
72721;BME280;60835;50.974;10.322;2022-10-17T03:28:17;97486.66;;;12.98;100.00
72721;BME280;60835;50.974;10.322;2022-10-17T03:30:43;97462.53;;;12.93;100.00
72721;BME280;60835;50.974;10.322;2022-10-17T03:33:10;97476.28;;;13.03;100.00
72721;BME280;60835;50.974;10.322;2022-10-17T03:35:38;97484.28;;;12.82;100.00
72721;BME280;60835;50.974;10.322;2022-10-17T03:38:05;97466.75;;;12.81;100.00
72721;BME280;60835;50.974;10.322;2022-10-17T03:40:32;97479.88;;;12.89;100.00
72721;BME280;60835;50.974;10.322;2022-10-17T03:42:58;97482.91;;;12.86;100.00
72721;BME280;60835;50.974;10.322;2022-10-17T03:45:24;97431.88;;;12.42;100.00
72721;BME280;60835;50.974;10.322;2022-10-17T03:47:51;97488.59;;;12.83;100.00
72721;BME280;60835;50.974;10.322;2022-10-17T03:50:17;97490.38;;;12.76;100.00
72721;BME280;60835;50.974;10.322;2022-10-17T03:52:47;97501.13;;;12.68;100.00
72721;BME280;60835;50.974;10.322;2022-10-17T03:55:15;97496.31;;;12.78;100.00
72721;BME280;60835;50.974;10.322;2022-10-17T03:57:41;97498.84;;;12.86;100.00
72721;BME280;60835;50.974;10.322;2022-10-17T04:00:11;97512.53;;;12.68;100.00
72721;BME280;60835;50.974;10.322;2022-10-17T04:02:38;97521.44;;;12.61;100.00
72721;BME280;60835;50.974;10.322;2022-10-17T04:05:05;97498.38;;;12.82;100.00
72721;BME280;60835;50.974;10.322;2022-10-17T04:07:31;97489.22;;;12.64;100.00
72721;BME280;60835;50.974;10.322;2022-10-17T04:09:58;97512.53;;;12.68;100.00
72721;BME280;60835;50.974;10.322;2022-10-17T04:12:24;97516.63;;;12.71;100.00
72721;BME280;60835;50.974;10.322;2022-10-17T04:14:51;97520.06;;;12.65;100.00
72721;BME280;60835;50.974;10.322;2022-10-17T04:17:17;97506.84;;;12.71;100.00
72721;BME280;60835;50.974;10.322;2022-10-17T04:19:43;97514.25;;;12.55;100.00
72721;BME280;60835;50.974;10.322;2022-10-17T04:22:10;97519.88;;;12.66;100.00
72721;BME280;60835;50.974;10.322;2022-10-17T04:24:36;97524.72;;;12.63;100.00
72721;BME280;60835;50.974;10.322;2022-10-17T04:27:03;97517.03;;;12.68;100.00
72721;BME280;60835;50.974;10.322;2022-10-17T04:29:29;97513.59;;;12.53;100.00
72721;BME280;60835;50.974;10.322;2022-10-17T04:31:55;97533.19;;;12.52;100.00
72721;BME280;60835;50.974;10.322;2022-10-17T04:34:22;97513.72;;;12.45;100.00
72721;BME280;60835;50.974;10.322;2022-10-17T04:36:48;97535.34;;;12.63;100.00
72721;BME280;60835;50.974;10.322;2022-10-17T04:39:17;97541.22;;;12.58;100.00
72721;BME280;60835;50.974;10.322;2022-10-17T04:41:43;97534.97;;;12.66;100.00
72721;BME280;60835;50.974;10.322;2022-10-17T04:44:10;97532.06;;;12.61;100.00
72721;BME280;60835;50.974;10.322;2022-10-17T04:46:36;97528.03;;;12.65;100.00
72721;BME280;60835;50.974;10.322;2022-10-17T04:49:03;97520.31;;;12.49;100.00
72721;BME280;60835;50.974;10.322;2022-10-17T04:51:30;97542.66;;;12.61;100.00
72721;BME280;60835;50.974;10.322;2022-10-17T04:53:56;97543.03;;;12.58;100.00
72721;BME280;60835;50.974;10.322;2022-10-17T04:56:23;97538.28;;;12.68;100.00
72721;BME280;60835;50.974;10.322;2022-10-17T04:58:50;97533.97;;;12.67;100.00
72721;BME280;60835;50.974;10.322;2022-10-17T05:01:20;97539.16;;;12.75;100.00
72721;BME280;60835;50.974;10.322;2022-10-17T05:03:47;97549.75;;;12.75;100.00
72721;BME280;60835;50.974;10.322;2022-10-17T05:06:20;97538.53;;;12.73;100.00
72721;BME280;60835;50.974;10.322;2022-10-17T05:08:47;97543.88;;;12.79;100.00
72721;BME280;60835;50.974;10.322;2022-10-17T05:11:25;97546.97;;;12.83;100.00
72721;BME280;60835;50.974;10.322;2022-10-17T05:13:53;97536.00;;;12.86;100.00
72721;BME280;60835;50.974;10.322;2022-10-17T05:16:21;97541.34;;;12.71;100.00
72721;BME280;60835;50.974;10.322;2022-10-17T05:18:49;97554.63;;;12.71;100.00
72721;BME280;60835;50.974;10.322;2022-10-17T05:21:19;97555.56;;;12.85;100.00
72721;BME280;60835;50.974;10.322;2022-10-17T05:23:46;97555.19;;;12.88;100.00
72721;BME280;60835;50.974;10.322;2022-10-17T05:26:13;97547.84;;;12.69;100.00
72721;BME280;60835;50.974;10.322;2022-10-17T05:28:40;97525.88;;;12.54;100.00
72721;BME280;60835;50.974;10.322;2022-10-17T05:31:08;97566.38;;;12.83;100.00
72721;BME280;60835;50.974;10.322;2022-10-17T05:33:35;97551.75;;;13.09;100.00
72721;BME280;60835;50.974;10.322;2022-10-17T05:36:03;97553.28;;;13.03;100.00
72721;BME280;60835;50.974;10.322;2022-10-17T05:38:29;97519.69;;;12.89;100.00
72721;BME280;60835;50.974;10.322;2022-10-17T05:41:01;97555.66;;;13.13;100.00
72721;BME280;60835;50.974;10.322;2022-10-17T05:43:28;97550.53;;;13.11;100.00
72721;BME280;60835;50.974;10.322;2022-10-17T05:45:54;97556.91;;;13.17;100.00
72721;BME280;60835;50.974;10.322;2022-10-17T05:48:22;97557.97;;;13.22;100.00
72721;BME280;60835;50.974;10.322;2022-10-17T05:50:48;97553.78;;;13.34;100.00
72721;BME280;60835;50.974;10.322;2022-10-17T05:53:15;97534.94;;;13.29;100.00
72721;BME280;60835;50.974;10.322;2022-10-17T05:55:42;97557.22;;;13.28;100.00
72721;BME280;60835;50.974;10.322;2022-10-17T05:58:08;97556.84;;;13.31;100.00
72721;BME280;60835;50.974;10.322;2022-10-17T06:00:47;97561.19;;;13.39;100.00
72721;BME280;60835;50.974;10.322;2022-10-17T06:03:13;97554.53;;;13.50;100.00
72721;BME280;60835;50.974;10.322;2022-10-17T06:05:40;97568.38;;;13.45;100.00
72721;BME280;60835;50.974;10.322;2022-10-17T06:08:06;97568.66;;;13.57;100.00
72721;BME280;60835;50.974;10.322;2022-10-17T06:10:33;97578.53;;;13.63;100.00
72721;BME280;60835;50.974;10.322;2022-10-17T06:12:59;97587.34;;;13.70;100.00
72721;BME280;60835;50.974;10.322;2022-10-17T06:15:26;97602.63;;;13.89;100.00
72721;BME280;60835;50.974;10.322;2022-10-17T06:17:52;97603.41;;;13.83;100.00
72721;BME280;60835;50.974;10.322;2022-10-17T06:20:19;97580.88;;;13.79;100.00
72721;BME280;60835;50.974;10.322;2022-10-17T06:22:45;97612.28;;;13.96;100.00
72721;BME280;60835;50.974;10.322;2022-10-17T06:25:11;97622.97;;;14.03;100.00
72721;BME280;60835;50.974;10.322;2022-10-17T06:27:38;97619.50;;;14.09;100.00
72721;BME280;60835;50.974;10.322;2022-10-17T06:30:05;97594.38;;;14.59;100.00
72721;BME280;60835;50.974;10.322;2022-10-17T06:32:32;97541.25;;;15.57;100.00
72721;BME280;60835;50.974;10.322;2022-10-17T06:34:58;97593.72;;;15.24;100.00
72721;BME280;60835;50.974;10.322;2022-10-17T06:37:25;97585.75;;;15.76;100.00
72721;BME280;60835;50.974;10.322;2022-10-17T06:39:52;97553.81;;;16.21;100.00
72721;BME280;60835;50.974;10.322;2022-10-17T06:42:18;97522.00;;;16.19;100.00
72721;BME280;60835;50.974;10.322;2022-10-17T06:44:45;97607.47;;;16.70;100.00
72721;BME280;60835;50.974;10.322;2022-10-17T06:47:11;97791.03;;;16.94;100.00
72721;BME280;60835;50.974;10.322;2022-10-17T06:49:43;97920.75;;;17.10;100.00
72721;BME280;60835;50.974;10.322;2022-10-17T06:52:09;98002.38;;;17.26;100.00
72721;BME280;60835;50.974;10.322;2022-10-17T06:54:36;98067.75;;;17.17;100.00
72721;BME280;60835;50.974;10.322;2022-10-17T06:57:02;98078.03;;;17.20;100.00
72721;BME280;60835;50.974;10.322;2022-10-17T06:59:29;98120.41;;;17.36;100.00
72721;BME280;60835;50.974;10.322;2022-10-17T07:01:55;98123.28;;;17.41;100.00
72721;BME280;60835;50.974;10.322;2022-10-17T07:04:21;98161.38;;;17.56;100.00
72721;BME280;60835;50.974;10.322;2022-10-17T07:06:48;98188.09;;;17.49;100.00
72721;BME280;60835;50.974;10.322;2022-10-17T07:09:14;98168.97;;;17.39;100.00
72721;BME280;60835;50.974;10.322;2022-10-17T07:11:42;98167.31;;;17.45;100.00
72721;BME280;60835;50.974;10.322;2022-10-17T07:14:08;98211.81;;;17.66;100.00
72721;BME280;60835;50.974;10.322;2022-10-17T07:16:35;98224.16;;;17.80;100.00
72721;BME280;60835;50.974;10.322;2022-10-17T07:19:02;98244.31;;;17.69;100.00
72721;BME280;60835;50.974;10.322;2022-10-17T07:21:28;98285.53;;;17.81;100.00
72721;BME280;60835;50.974;10.322;2022-10-17T07:23:59;98311.69;;;17.92;100.00
72721;BME280;60835;50.974;10.322;2022-10-17T07:26:25;98374.13;;;18.25;100.00
72721;BME280;60835;50.974;10.322;2022-10-17T07:28:53;98438.38;;;18.25;100.00
72721;BME280;60835;50.974;10.322;2022-10-17T07:31:21;98455.69;;;18.23;100.00
72721;BME280;60835;50.974;10.322;2022-10-17T07:33:49;98494.00;;;18.23;100.00
72721;BME280;60835;50.974;10.322;2022-10-17T07:36:16;98553.81;;;18.37;100.00
72721;BME280;60835;50.974;10.322;2022-10-17T07:38:43;98577.06;;;18.84;100.00
72721;BME280;60835;50.974;10.322;2022-10-17T07:41:11;98691.97;;;19.00;100.00
72721;BME280;60835;50.974;10.322;2022-10-17T07:43:44;98762.09;;;19.51;100.00
72721;BME280;60835;50.974;10.322;2022-10-17T07:46:11;98871.16;;;19.72;100.00
72721;BME280;60835;50.974;10.322;2022-10-17T07:48:38;98879.44;;;19.77;100.00
72721;BME280;60835;50.974;10.322;2022-10-17T07:51:06;98917.75;;;19.58;100.00
72721;BME280;60835;50.974;10.322;2022-10-17T07:53:37;98907.41;;;20.15;100.00
72721;BME280;60835;50.974;10.322;2022-10-17T07:56:06;98977.59;;;20.46;100.00
72721;BME280;60835;50.974;10.322;2022-10-17T07:58:33;99012.78;;;20.97;100.00
72721;BME280;60835;50.974;10.322;2022-10-17T08:01:05;99058.75;;;21.48;100.00
72721;BME280;60835;50.974;10.322;2022-10-17T08:03:36;99093.69;;;20.89;100.00
72721;BME280;60835;50.974;10.322;2022-10-17T08:06:02;99115.06;;;21.17;100.00
72721;BME280;60835;50.974;10.322;2022-10-17T08:08:29;99139.91;;;22.11;100.00
72721;BME280;60835;50.974;10.322;2022-10-17T08:11:01;99164.78;;;21.47;100.00
72721;BME280;60835;50.974;10.322;2022-10-17T08:13:27;99127.06;;;21.08;100.00
72721;BME280;60835;50.974;10.322;2022-10-17T08:15:58;99147.81;;;21.40;100.00
72721;BME280;60835;50.974;10.322;2022-10-17T08:18:24;99169.75;;;21.37;100.00
72721;BME280;60835;50.974;10.322;2022-10-17T08:20:51;99205.38;;;22.24;100.00
72721;BME280;60835;50.974;10.322;2022-10-17T08:23:23;99243.09;;;22.44;100.00
72721;BME280;60835;50.974;10.322;2022-10-17T08:25:49;99277.34;;;23.21;100.00
72721;BME280;60835;50.974;10.322;2022-10-17T08:28:16;99291.44;;;22.19;100.00
72721;BME280;60835;50.974;10.322;2022-10-17T08:30:42;99300.16;;;23.25;100.00
72721;BME280;60835;50.974;10.322;2022-10-17T08:33:08;99330.47;;;23.40;100.00
72721;BME280;60835;50.974;10.322;2022-10-17T08:35:35;99364.44;;;23.54;100.00
72721;BME280;60835;50.974;10.322;2022-10-17T08:38:02;99355.91;;;22.93;100.00
72721;BME280;60835;50.974;10.322;2022-10-17T08:40:30;99367.31;;;23.01;100.00
72721;BME280;60835;50.974;10.322;2022-10-17T08:43:27;99357.81;;;23.50;100.00
72721;BME280;60835;50.974;10.322;2022-10-17T08:46:03;99393.28;;;22.89;100.00
72721;BME280;60835;50.974;10.322;2022-10-17T08:48:35;99369.22;;;22.81;100.00
72721;BME280;60835;50.974;10.322;2022-10-17T08:51:20;99394.94;;;22.90;100.00
72721;BME280;60835;50.974;10.322;2022-10-17T08:53:57;99372.88;;;23.07;100.00
72721;BME280;60835;50.974;10.322;2022-10-17T08:56:53;99364.56;;;23.21;100.00
72721;BME280;60835;50.974;10.322;2022-10-17T08:59:27;99382.28;;;22.91;100.00
72721;BME280;60835;50.974;10.322;2022-10-17T09:09:54;99382.63;;;23.78;100.00
72721;BME280;60835;50.974;10.322;2022-10-17T09:12:37;99420.28;;;24.49;100.00
72721;BME280;60835;50.974;10.322;2022-10-17T09:18:12;99404.31;;;24.41;100.00
72721;BME280;60835;50.974;10.322;2022-10-17T09:20:50;99421.41;;;23.52;100.00
72721;BME280;60835;50.974;10.322;2022-10-17T09:23:24;99410.84;;;23.89;100.00
72721;BME280;60835;50.974;10.322;2022-10-17T09:25:55;99395.78;;;24.06;100.00
72721;BME280;60835;50.974;10.322;2022-10-17T09:28:33;99428.63;;;24.09;100.00
72721;BME280;60835;50.974;10.322;2022-10-17T09:31:15;99426.56;;;24.67;100.00
72721;BME280;60835;50.974;10.322;2022-10-17T09:33:45;99506.63;;;25.06;100.00
72721;BME280;60835;50.974;10.322;2022-10-17T09:36:37;99510.84;;;24.71;100.00
72721;BME280;60835;50.974;10.322;2022-10-17T09:41:38;99517.09;;;24.34;100.00
72721;BME280;60835;50.974;10.322;2022-10-17T09:49:19;99524.53;;;24.45;100.00
72721;BME280;60835;50.974;10.322;2022-10-17T09:51:48;99521.25;;;24.36;100.00
72721;BME280;60835;50.974;10.322;2022-10-17T09:54:24;99518.69;;;24.48;100.00
72721;BME280;60835;50.974;10.322;2022-10-17T09:57:03;99505.31;;;24.59;100.00
72721;BME280;60835;50.974;10.322;2022-10-17T09:59:33;99509.44;;;25.18;100.00
72721;BME280;60835;50.974;10.322;2022-10-17T10:02:27;99527.59;;;24.86;100.00
72721;BME280;60835;50.974;10.322;2022-10-17T10:05:05;99528.22;;;24.57;100.00
72721;BME280;60835;50.974;10.322;2022-10-17T10:07:37;99524.31;;;24.84;100.00
72721;BME280;60835;50.974;10.322;2022-10-17T10:10:22;99539.13;;;25.56;100.00
72721;BME280;60835;50.974;10.322;2022-10-17T10:15:45;99567.59;;;25.65;100.00
72721;BME280;60835;50.974;10.322;2022-10-17T10:21:20;99475.75;;;23.82;100.00
72721;BME280;60835;50.974;10.322;2022-10-17T10:26:46;99571.38;;;25.82;100.00
72721;BME280;60835;50.974;10.322;2022-10-17T10:29:27;99565.78;;;24.78;100.00
72721;BME280;60835;50.974;10.322;2022-10-17T10:32:19;99563.41;;;23.99;100.00
72721;BME280;60835;50.974;10.322;2022-10-17T10:37:28;99569.31;;;25.34;100.00
72721;BME280;60835;50.974;10.322;2022-10-17T10:40:15;99598.44;;;25.88;100.00
72721;BME280;60835;50.974;10.322;2022-10-17T10:42:47;99583.13;;;24.64;100.00
72721;BME280;60835;50.974;10.322;2022-10-17T10:45:24;99575.72;;;25.15;100.00
72721;BME280;60835;50.974;10.322;2022-10-17T10:48:24;99574.03;;;25.39;100.00
72721;BME280;60835;50.974;10.322;2022-10-17T10:51:17;99565.66;;;25.22;100.00
72721;BME280;60835;50.974;10.322;2022-10-17T11:04:46;99585.19;;;25.56;100.00
72721;BME280;60835;50.974;10.322;2022-10-17T11:10:43;99597.19;;;25.41;100.00
72721;BME280;60835;50.974;10.322;2022-10-17T11:13:18;99573.34;;;25.93;100.00
72721;BME280;60835;50.974;10.322;2022-10-17T11:15:54;99595.72;;;26.73;100.00
72721;BME280;60835;50.974;10.322;2022-10-17T11:18:28;99595.03;;;25.93;100.00
72721;BME280;60835;50.974;10.322;2022-10-17T11:26:59;99603.19;;;26.47;100.00
72721;BME280;60835;50.974;10.322;2022-10-17T11:29:31;99593.78;;;26.61;100.00
72721;BME280;60835;50.974;10.322;2022-10-17T11:32:07;99603.41;;;26.94;100.00
72721;BME280;60835;50.974;10.322;2022-10-17T11:34:49;99607.56;;;27.72;100.00
72721;BME280;60835;50.974;10.322;2022-10-17T11:37:20;99602.38;;;26.77;100.00
72721;BME280;60835;50.974;10.322;2022-10-17T11:39:55;99598.13;;;27.10;100.00
72721;BME280;60835;50.974;10.322;2022-10-17T11:42:30;99612.13;;;27.37;100.00
72721;BME280;60835;50.974;10.322;2022-10-17T11:45:02;99605.88;;;27.48;100.00
72721;BME280;60835;50.974;10.322;2022-10-17T11:47:42;99626.97;;;28.62;100.00
72721;BME280;60835;50.974;10.322;2022-10-17T11:50:28;99617.47;;;27.67;100.00
72721;BME280;60835;50.974;10.322;2022-10-17T11:53:18;99598.25;;;26.26;100.00
72721;BME280;60835;50.974;10.322;2022-10-17T11:55:46;99606.13;;;26.94;100.00
72721;BME280;60835;50.974;10.322;2022-10-17T11:58:24;99623.16;;;27.42;100.00
72721;BME280;60835;50.974;10.322;2022-10-17T12:03:57;99617.78;;;26.65;100.00
72721;BME280;60835;50.974;10.322;2022-10-17T12:09:26;99598.53;;;26.36;100.00
72721;BME280;60835;50.974;10.322;2022-10-17T12:11:59;99603.28;;;26.71;100.00
72721;BME280;60835;50.974;10.322;2022-10-17T12:17:20;99613.16;;;27.13;100.00
72721;BME280;60835;50.974;10.322;2022-10-17T12:19:49;99608.44;;;28.76;100.00
72721;BME280;60835;50.974;10.322;2022-10-17T12:22:34;99619.75;;;26.57;100.00
72721;BME280;60835;50.974;10.322;2022-10-17T12:25:01;99619.88;;;27.63;100.00
72721;BME280;60835;50.974;10.322;2022-10-17T12:27:37;99632.13;;;26.35;100.00
72721;BME280;60835;50.974;10.322;2022-10-17T12:32:56;99616.25;;;26.39;100.00
72721;BME280;60835;50.974;10.322;2022-10-17T12:35:34;99633.47;;;28.61;100.00
72721;BME280;60835;50.974;10.322;2022-10-17T12:38:14;99619.97;;;27.04;100.00
72721;BME280;60835;50.974;10.322;2022-10-17T12:51:15;99633.13;;;27.18;100.00
72721;BME280;60835;50.974;10.322;2022-10-17T12:56:44;99606.88;;;27.12;100.00
72721;BME280;60835;50.974;10.322;2022-10-17T12:59:27;99625.78;;;27.84;100.00
72721;BME280;60835;50.974;10.322;2022-10-17T13:01:56;99630.13;;;27.96;100.00
72721;BME280;60835;50.974;10.322;2022-10-17T13:04:25;99609.81;;;27.75;100.00
72721;BME280;60835;50.974;10.322;2022-10-17T13:06:55;99637.44;;;28.30;100.00
72721;BME280;60835;50.974;10.322;2022-10-17T13:09:29;99641.16;;;28.24;100.00
72721;BME280;60835;50.974;10.322;2022-10-17T13:12:02;99637.97;;;28.16;100.00
72721;BME280;60835;50.974;10.322;2022-10-17T13:14:30;99637.81;;;28.34;100.00
72721;BME280;60835;50.974;10.322;2022-10-17T13:17:00;99645.16;;;28.85;100.00
72721;BME280;60835;50.974;10.322;2022-10-17T13:19:31;99644.59;;;27.85;100.00
72721;BME280;60835;50.974;10.322;2022-10-17T13:24:42;99643.63;;;27.79;100.00
72721;BME280;60835;50.974;10.322;2022-10-17T13:29:48;99648.22;;;27.67;100.00
72721;BME280;60835;50.974;10.322;2022-10-17T13:32:14;99649.25;;;27.02;100.00
72721;BME280;60835;50.974;10.322;2022-10-17T13:34:41;99643.03;;;26.83;100.00
72721;BME280;60835;50.974;10.322;2022-10-17T13:37:13;99628.38;;;26.36;100.00
72721;BME280;60835;50.974;10.322;2022-10-17T13:39:43;99652.38;;;25.72;100.00
72721;BME280;60835;50.974;10.322;2022-10-17T13:42:29;99652.97;;;25.98;100.00
72721;BME280;60835;50.974;10.322;2022-10-17T13:44:57;99621.94;;;25.20;100.00
72721;BME280;60835;50.974;10.322;2022-10-17T13:47:26;99651.75;;;25.20;100.00
72721;BME280;60835;50.974;10.322;2022-10-17T13:49:54;99642.69;;;25.33;100.00
72721;BME280;60835;50.974;10.322;2022-10-17T13:52:23;99636.81;;;25.36;100.00
72721;BME280;60835;50.974;10.322;2022-10-17T13:54:51;99652.59;;;25.14;100.00
72721;BME280;60835;50.974;10.322;2022-10-17T13:59:50;99659.91;;;25.14;100.00
72721;BME280;60835;50.974;10.322;2022-10-17T14:02:26;99654.34;;;25.02;100.00
72721;BME280;60835;50.974;10.322;2022-10-17T14:07:54;99645.91;;;24.86;100.00
72721;BME280;60835;50.974;10.322;2022-10-17T14:10:39;99655.19;;;24.52;100.00
72721;BME280;60835;50.974;10.322;2022-10-17T14:13:20;99658.66;;;24.72;100.00
72721;BME280;60835;50.974;10.322;2022-10-17T14:15:48;99645.38;;;24.64;100.00
72721;BME280;60835;50.974;10.322;2022-10-17T14:18:21;99657.69;;;24.47;100.00
72721;BME280;60835;50.974;10.322;2022-10-17T14:20:49;99675.31;;;24.62;100.00
72721;BME280;60835;50.974;10.322;2022-10-17T14:23:42;99658.09;;;24.57;100.00
72721;BME280;60835;50.974;10.322;2022-10-17T14:26:20;99658.94;;;24.51;100.00
72721;BME280;60835;50.974;10.322;2022-10-17T14:29:00;99661.72;;;24.75;100.00
72721;BME280;60835;50.974;10.322;2022-10-17T14:31:33;99674.28;;;24.70;100.00
72721;BME280;60835;50.974;10.322;2022-10-17T14:34:02;99639.88;;;24.33;100.00
72721;BME280;60835;50.974;10.322;2022-10-17T14:36:35;99647.63;;;24.16;100.00
72721;BME280;60835;50.974;10.322;2022-10-17T14:39:05;99660.25;;;24.29;100.00
72721;BME280;60835;50.974;10.322;2022-10-17T14:41:42;99666.31;;;24.04;100.00
72721;BME280;60835;50.974;10.322;2022-10-17T14:44:32;99661.16;;;23.90;100.00
72721;BME280;60835;50.974;10.322;2022-10-17T14:47:03;99642.44;;;23.88;100.00
72721;BME280;60835;50.974;10.322;2022-10-17T14:50:02;99670.72;;;23.86;100.00
72721;BME280;60835;50.974;10.322;2022-10-17T14:52:30;99642.06;;;23.65;100.00
72721;BME280;60835;50.974;10.322;2022-10-17T14:54:58;99657.44;;;23.84;100.00
72721;BME280;60835;50.974;10.322;2022-10-17T14:59:57;99615.88;;;23.46;100.00
72721;BME280;60835;50.974;10.322;2022-10-17T15:02:26;99652.03;;;23.58;100.00
72721;BME280;60835;50.974;10.322;2022-10-17T15:04:53;99653.47;;;23.54;100.00
72721;BME280;60835;50.974;10.322;2022-10-17T15:07:20;99647.47;;;23.52;100.00